AAL2604 KCLT-KSRQ
Flight info
| Callsign | AAL2604 |
|---|---|
| Flight time | N/A |
| Altitude | 36000 |
| Route | ICONS5 NOOKS RIELE Q103 PUPYY KYYUU LUBBR3 |
| Aircraft | A20N/M-SDE2E3FGHIRWXY/LB1 |
Departure
| Time | N/A |
|---|---|
| Airport | Charlotte Douglas International Airport (KCLT) |
Arrival
| Time | 2026-05-04 01:49 |
|---|---|
| Airport | Sarasota Bradenton International Airport (KSRQ) |
| Time | Latitude | Longitude | Altitude | Speed | Heading |
|---|---|---|---|---|---|
| 2026-05-04 01:20 | 29.44319 | -82.22710 | 36000 ft | 416 kts | 186° |
| 2026-05-04 01:20 | 29.41444 | -82.22356 | 35532 ft | 415 kts | 186° |
| 2026-05-04 01:21 | 29.38554 | -82.22001 | 34885 ft | 416 kts | 185° |
| 2026-05-04 01:21 | 29.35654 | -82.21621 | 34135 ft | 420 kts | 184° |
| 2026-05-04 01:21 | 29.32778 | -82.21220 | 33421 ft | 421 kts | 184° |
| 2026-05-04 01:21 | 29.29870 | -82.20798 | 33171 ft | 425 kts | 183° |
| 2026-05-04 01:22 | 29.26896 | -82.20366 | 33108 ft | 431 kts | 183° |
| 2026-05-04 01:22 | 29.20982 | -82.19487 | 32998 ft | 429 kts | 183° |
| 2026-05-04 01:22 | 29.18004 | -82.19047 | 32701 ft | 431 kts | 183° |
| 2026-05-04 01:23 | 29.15016 | -82.18608 | 32342 ft | 432 kts | 183° |
| 2026-05-04 01:23 | 29.12029 | -82.18169 | 31988 ft | 433 kts | 182° |
| 2026-05-04 01:23 | 29.09062 | -82.17735 | 31647 ft | 435 kts | 182° |
| 2026-05-04 01:23 | 29.06049 | -82.17294 | 31297 ft | 437 kts | 182° |
| 2026-05-04 01:24 | 29.03019 | -82.16851 | 30952 ft | 439 kts | 182° |
| 2026-05-04 01:24 | 28.99985 | -82.16407 | 30616 ft | 440 kts | 182° |
| 2026-05-04 01:24 | 28.96943 | -82.15960 | 30273 ft | 438 kts | 182° |
| 2026-05-04 01:24 | 28.93943 | -82.15519 | 29895 ft | 437 kts | 181° |
| 2026-05-04 01:25 | 28.90936 | -82.15076 | 29515 ft | 434 kts | 181° |
| 2026-05-04 01:25 | 28.87935 | -82.14636 | 29125 ft | 431 kts | 181° |
| 2026-05-04 01:25 | 28.85001 | -82.14206 | 28751 ft | 429 kts | 181° |
| 2026-05-04 01:25 | 28.82029 | -82.13772 | 28386 ft | 427 kts | 181° |
| 2026-05-04 01:26 | 28.79086 | -82.13342 | 28009 ft | 424 kts | 181° |
| 2026-05-04 01:26 | 28.76164 | -82.12915 | 27646 ft | 422 kts | 181° |
| 2026-05-04 01:26 | 28.73255 | -82.12491 | 27291 ft | 420 kts | 181° |
| 2026-05-04 01:26 | 28.70360 | -82.12069 | 26907 ft | 418 kts | 181° |
| 2026-05-04 01:27 | 28.67509 | -82.11654 | 26512 ft | 416 kts | 181° |
| 2026-05-04 01:27 | 28.64638 | -82.11240 | 26115 ft | 413 kts | 181° |
| 2026-05-04 01:27 | 28.61797 | -82.10833 | 25728 ft | 411 kts | 181° |
| 2026-05-04 01:27 | 28.58964 | -82.10429 | 25349 ft | 408 kts | 181° |
| 2026-05-04 01:28 | 28.56143 | -82.10027 | 24960 ft | 406 kts | 181° |
| 2026-05-04 01:28 | 28.53375 | -82.09632 | 24595 ft | 404 kts | 181° |
| 2026-05-04 01:28 | 28.50586 | -82.09234 | 24231 ft | 402 kts | 181° |
| 2026-05-04 01:28 | 28.47808 | -82.08748 | 23868 ft | 404 kts | 176° |
| 2026-05-04 01:29 | 28.45083 | -82.08046 | 23492 ft | 403 kts | 175° |
| 2026-05-04 01:29 | 28.42352 | -82.07339 | 23071 ft | 401 kts | 175° |
| 2026-05-04 01:29 | 28.39635 | -82.06639 | 22662 ft | 397 kts | 175° |
| 2026-05-04 01:29 | 28.36935 | -82.05947 | 22272 ft | 394 kts | 175° |
| 2026-05-04 01:30 | 28.34278 | -82.05266 | 22127 ft | 391 kts | 175° |
| 2026-05-04 01:30 | 28.31608 | -82.04586 | 22106 ft | 394 kts | 175° |
| 2026-05-04 01:30 | 28.28954 | -82.03973 | 21951 ft | 391 kts | 179° |
| 2026-05-04 01:30 | 28.26257 | -82.03565 | 21541 ft | 388 kts | 180° |
| 2026-05-04 01:31 | 28.23583 | -82.03168 | 21091 ft | 383 kts | 180° |
| 2026-05-04 01:31 | 28.20954 | -82.02775 | 20653 ft | 378 kts | 180° |
| 2026-05-04 01:31 | 28.18369 | -82.02389 | 20224 ft | 378 kts | 180° |
| 2026-05-04 01:31 | 28.15753 | -82.01999 | 19790 ft | 376 kts | 180° |
| 2026-05-04 01:32 | 28.13203 | -82.01894 | 19365 ft | 363 kts | 192° |
| 2026-05-04 01:32 | 28.10773 | -82.02416 | 19158 ft | 350 kts | 204° |
| 2026-05-04 01:32 | 28.08544 | -82.03485 | 19097 ft | 346 kts | 213° |
| 2026-05-04 01:32 | 28.06447 | -82.04783 | 18956 ft | 348 kts | 213° |
| 2026-05-04 01:33 | 28.04297 | -82.06100 | 18550 ft | 347 kts | 213° |
| 2026-05-04 01:33 | 28.02177 | -82.07391 | 18008 ft | 343 kts | 213° |
| 2026-05-04 01:33 | 28.00107 | -82.08651 | 17444 ft | 340 kts | 213° |
| 2026-05-04 01:33 | 27.98033 | -82.09914 | 16893 ft | 337 kts | 213° |
| 2026-05-04 01:34 | 27.95957 | -82.11182 | 16330 ft | 338 kts | 213° |
| 2026-05-04 01:34 | 27.93885 | -82.12445 | 15800 ft | 335 kts | 213° |
| 2026-05-04 01:34 | 27.91840 | -82.13692 | 15273 ft | 334 kts | 213° |
| 2026-05-04 01:34 | 27.89814 | -82.14928 | 14757 ft | 334 kts | 213° |
| 2026-05-04 01:35 | 27.87767 | -82.16175 | 14240 ft | 332 kts | 212° |
| 2026-05-04 01:35 | 27.85734 | -82.17412 | 13707 ft | 330 kts | 212° |
| 2026-05-04 01:35 | 27.83714 | -82.18641 | 13147 ft | 330 kts | 212° |
| 2026-05-04 01:35 | 27.81683 | -82.19876 | 12571 ft | 330 kts | 212° |
| 2026-05-04 01:36 | 27.79695 | -82.21085 | 12086 ft | 327 kts | 212° |
| 2026-05-04 01:36 | 27.77722 | -82.22336 | 11654 ft | 320 kts | 216° |
| 2026-05-04 01:36 | 27.75953 | -82.23809 | 11211 ft | 310 kts | 224° |
| 2026-05-04 01:36 | 27.74371 | -82.25383 | 10805 ft | 297 kts | 225° |
| 2026-05-04 01:37 | 27.72841 | -82.26898 | 10398 ft | 286 kts | 225° |
| 2026-05-04 01:37 | 27.71382 | -82.28336 | 10006 ft | 277 kts | 225° |
| 2026-05-04 01:37 | 27.69932 | -82.29766 | 9570 ft | 276 kts | 225° |
| 2026-05-04 01:37 | 27.68482 | -82.31199 | 9136 ft | 277 kts | 224° |
| 2026-05-04 01:38 | 27.67523 | -82.32146 | 8853 ft | 275 kts | 224° |
| 2026-05-04 01:38 | 27.66076 | -82.33573 | 8429 ft | 278 kts | 224° |
| 2026-05-04 01:38 | 27.64614 | -82.35012 | 8106 ft | 276 kts | 223° |
| 2026-05-04 01:38 | 27.63179 | -82.36421 | 8006 ft | 274 kts | 223° |
| 2026-05-04 01:39 | 27.61487 | -82.38522 | 7978 ft | 272 kts | 244° |
| 2026-05-04 01:39 | 27.61051 | -82.39870 | 7984 ft | 271 kts | 260° |
| 2026-05-04 01:39 | 27.60926 | -82.41964 | 7982 ft | 270 kts | 269° |
| 2026-05-04 01:39 | 27.60880 | -82.44099 | 7892 ft | 272 kts | 269° |
| 2026-05-04 01:40 | 27.60832 | -82.46225 | 7504 ft | 275 kts | 269° |
| 2026-05-04 01:40 | 27.60778 | -82.48407 | 6996 ft | 278 kts | 269° |
| 2026-05-04 01:40 | 27.60719 | -82.50579 | 6497 ft | 274 kts | 269° |
| 2026-05-04 01:40 | 27.60659 | -82.52708 | 5995 ft | 269 kts | 269° |
| 2026-05-04 01:41 | 27.60598 | -82.54783 | 5501 ft | 266 kts | 269° |
| 2026-05-04 01:41 | 27.60539 | -82.56861 | 4998 ft | 263 kts | 269° |
| 2026-05-04 01:41 | 27.60479 | -82.58920 | 4508 ft | 262 kts | 269° |
| 2026-05-04 01:41 | 27.60420 | -82.60969 | 4048 ft | 258 kts | 269° |
| 2026-05-04 01:42 | 27.60364 | -82.62935 | 3797 ft | 247 kts | 269° |
| 2026-05-04 01:42 | 27.60309 | -82.64845 | 3569 ft | 239 kts | 269° |
| 2026-05-04 01:42 | 27.60240 | -82.66739 | 3362 ft | 246 kts | 263° |
| 2026-05-04 01:42 | 27.59657 | -82.68483 | 3122 ft | 233 kts | 231° |
| 2026-05-04 01:43 | 27.58455 | -82.69577 | 2990 ft | 215 kts | 205° |
| 2026-05-04 01:43 | 27.57098 | -82.70332 | 2982 ft | 223 kts | 205° |
| 2026-05-04 01:43 | 27.55769 | -82.71157 | 2978 ft | 207 kts | 200° |
| 2026-05-04 01:43 | 27.54444 | -82.71452 | 3002 ft | 192 kts | 172° |
| 2026-05-04 01:44 | 27.53198 | -82.70970 | 2988 ft | 188 kts | 136° |
| 2026-05-04 01:44 | 27.52269 | -82.69967 | 2979 ft | 181 kts | 132° |
| 2026-05-04 01:44 | 27.51413 | -82.69002 | 2964 ft | 174 kts | 131° |
| 2026-05-04 01:44 | 27.50563 | -82.68044 | 2912 ft | 167 kts | 132° |
| 2026-05-04 01:45 | 27.49754 | -82.67148 | 2870 ft | 160 kts | 132° |
| 2026-05-04 01:45 | 27.48962 | -82.66283 | 2696 ft | 157 kts | 131° |
| 2026-05-04 01:45 | 27.47421 | -82.64564 | 2185 ft | 152 kts | 129° |
| 2026-05-04 01:46 | 27.46699 | -82.63707 | 1815 ft | 153 kts | 129° |
| 2026-05-04 01:46 | 27.45972 | -82.62865 | 1563 ft | 146 kts | 130° |
| 2026-05-04 01:46 | 27.45279 | -82.62083 | 1378 ft | 139 kts | 131° |
| 2026-05-04 01:46 | 27.44605 | -82.61317 | 1298 ft | 134 kts | 130° |
| 2026-05-04 01:47 | 27.43958 | -82.60569 | 1128 ft | 136 kts | 130° |
| 2026-05-04 01:47 | 27.43293 | -82.59811 | 941 ft | 139 kts | 130° |
| 2026-05-04 01:47 | 27.42613 | -82.59031 | 730 ft | 140 kts | 130° |
| 2026-05-04 01:47 | 27.41955 | -82.58230 | 533 ft | 138 kts | 131° |
| 2026-05-04 01:48 | 27.41273 | -82.57465 | 369 ft | 140 kts | 134° |
| 2026-05-04 01:48 | 27.40600 | -82.56711 | 146 ft | 132 kts | 133° |
| 2026-05-04 01:48 | 27.39969 | -82.55998 | 32 ft | 121 kts | 134° |
| 2026-05-04 01:48 | 27.39454 | -82.55410 | 29 ft | 88 kts | 135° |
| 2026-05-04 01:49 | 27.39101 | -82.55009 | 30 ft | 58 kts | 135° |
| 2026-05-04 01:49 | 27.38917 | -82.54825 | 34 ft | 20 kts | 185° |
| 2026-05-04 01:49 | 27.38870 | -82.54860 | 35 ft | 0 kts | 225° |
| 2026-05-04 01:50 | 27.38864 | -82.54866 | 36 ft | 7 kts | 223° |
| 2026-05-04 01:50 | 27.38809 | -82.54928 | 37 ft | 12 kts | 238° |
| 2026-05-04 01:50 | 27.38795 | -82.55042 | 36 ft | 15 kts | 272° |
| 2026-05-04 01:50 | 27.38839 | -82.55162 | 34 ft | 19 kts | 304° |
| 2026-05-04 01:51 | 27.38902 | -82.55224 | 34 ft | 0 kts | 343° |
| 2026-05-04 01:51 | 27.38943 | -82.55235 | 34 ft | 12 kts | 352° |
| 2026-05-04 01:51 | 27.39050 | -82.55259 | 31 ft | 19 kts | 334° |
| 2026-05-04 01:51 | 27.39093 | -82.55304 | 31 ft | 7 kts | 311° |
| 2026-05-04 01:52 | 27.39121 | -82.55379 | 31 ft | 11 kts | 254° |
| 2026-05-04 01:52 | 27.39103 | -82.55389 | 31 ft | 0 kts | 189° |
| 2026-05-04 01:52 | 27.39084 | -82.55392 | 31 ft | 4 kts | 185° |
| 2026-05-04 01:52 | 27.39065 | -82.55394 | 31 ft | 1 kts | 185° |
| 2026-05-04 01:53 | 27.39057 | -82.55395 | 31 ft | 1 kts | 185° |
| 2026-05-04 01:53 | 27.39056 | -82.55395 | 31 ft | 0 kts | 185° |